KECU

Edwards County Airport

Rocksprings, Texas, USA
METAR KECU 170015Z AUTO 15003KT 10SM CLR 13/M04 A3032 RMK AO2
Observed Flight Rules
Dec-17 @ 00:15 UTC (8 minutes ago) Visual Flight Rules
Wind Visibility Clouds
150° at 3 knots 10 miles
  • Clear skies
Temperatures Readings
Current 13°C / 55°F
Dewpoint -4°C / 25°F
Humidity 31%
Altimeter 30.32" Hg
Pressure 1027 hPa
Elevation 725
METAR KECU 170015Z AUTO 15003KT 10SM CLR 13/M04 A3032 RMK AO2
Observed Flight Rules
Dec-17 @ 00:15 UTC
(8 minutes ago)
VFR
Wind Visibility
150° at 3 knots 10 miles
Clouds
  • Clear skies
Temperature Dewpoint
13°C / 55°F -4°C / 25°F
Humidity Altimeter Pressure
31% 30.32" Hg 1027 hPa